Terminal Aerodrome Forecast
Issued by NWS Wilmington, OH

Current Version | Previous Version | Graphics & Text | Print | Product List | Glossary On
Versions: 1 2 3 4 5 6 7 8 9 10 11 12 13 14 15 16
027
FTUS41 KILN 130536
TAFILN
TAF
KILN 130536Z 1306/1406 31012KT P6SM VCSH BKN035
     FM130900 31011KT P6SM -SHSN SCT015 BKN022
     FM131300 30011KT P6SM FEW022
     FM131700 30012KT P6SM VCSH BKN022
     FM132300 28005KT P6SM FEW022 SCT250=

USA.gov is the U.S. government's official web portal to all federal, state and local government web resources and services.